sensor_id;sensor_type;location;lat;lon;timestamp;pressure;altitude;pressure_sealevel;temperature;humidity
58775;BME280;44545;47.480;19.024;2024-03-25T04:36:40;99172.78;;;6.02;100.00
58775;BME280;44545;47.480;19.024;2024-03-25T04:39:42;99172.78;;;6.02;100.00
58775;BME280;44545;47.480;19.024;2024-03-25T04:42:43;99179.34;;;5.48;100.00
58775;BME280;44545;47.480;19.024;2024-03-25T04:45:44;99184.97;;;5.40;100.00
58775;BME280;44545;47.480;19.024;2024-03-25T04:48:46;99182.09;;;5.51;100.00
58775;BME280;44545;47.480;19.024;2024-03-25T04:51:48;99189.44;;;5.59;100.00
58775;BME280;44545;47.480;19.024;2024-03-25T04:54:53;99188.34;;;5.71;100.00
58775;BME280;44545;47.480;19.024;2024-03-25T04:57:54;99196.53;;;5.78;100.00
58775;BME280;44545;47.480;19.024;2024-03-25T05:00:55;99201.84;;;5.65;100.00
58775;BME280;44545;47.480;19.024;2024-03-25T05:03:57;99203.88;;;5.71;100.00
58775;BME280;44545;47.480;19.024;2024-03-25T05:06:59;99207.25;;;5.70;100.00
58775;BME280;44545;47.480;19.024;2024-03-25T05:10:00;99214.06;;;5.84;100.00
58775;BME280;44545;47.480;19.024;2024-03-25T05:13:02;99207.38;;;7.41;100.00
58775;BME280;44545;47.480;19.024;2024-03-25T05:16:04;99205.25;;;7.88;96.87
58775;BME280;44545;47.480;19.024;2024-03-25T05:19:05;99205.47;;;7.55;93.99
58775;BME280;44545;47.480;19.024;2024-03-25T05:22:06;99209.94;;;6.53;100.00
58775;BME280;44545;47.480;19.024;2024-03-25T05:25:08;99211.62;;;6.18;100.00
58775;BME280;44545;47.480;19.024;2024-03-25T05:28:09;99220.78;;;5.80;100.00
58775;BME280;44545;47.480;19.024;2024-03-25T05:31:11;99223.13;;;5.76;100.00
58775;BME280;44545;47.480;19.024;2024-03-25T05:34:13;99223.06;;;5.59;100.00
58775;BME280;44545;47.480;19.024;2024-03-25T05:37:14;99240.41;;;5.46;100.00
58775;BME280;44545;47.480;19.024;2024-03-25T05:40:16;99242.12;;;5.45;100.00
58775;BME280;44545;47.480;19.024;2024-03-25T05:43:18;99237.88;;;5.62;100.00
58775;BME280;44545;47.480;19.024;2024-03-25T05:46:21;99247.88;;;5.56;100.00
58775;BME280;44545;47.480;19.024;2024-03-25T05:49:23;99242.94;;;5.75;100.00
58775;BME280;44545;47.480;19.024;2024-03-25T05:52:28;99243.56;;;5.71;100.00
58775;BME280;44545;47.480;19.024;2024-03-25T05:55:29;99250.56;;;5.57;100.00
58775;BME280;44545;47.480;19.024;2024-03-25T05:58:31;99253.63;;;5.50;100.00
58775;BME280;44545;47.480;19.024;2024-03-25T06:01:32;99253.91;;;5.71;100.00
58775;BME280;44545;47.480;19.024;2024-03-25T06:04:35;99245.00;;;5.66;100.00
58775;BME280;44545;47.480;19.024;2024-03-25T06:07:36;99245.00;;;5.66;100.00
58775;BME280;44545;47.480;19.024;2024-03-25T06:10:38;99243.94;;;5.62;100.00
58775;BME280;44545;47.480;19.024;2024-03-25T06:13:39;99246.34;;;5.59;100.00
58775;BME280;44545;47.480;19.024;2024-03-25T06:16:41;99251.00;;;5.65;100.00
58775;BME280;44545;47.480;19.024;2024-03-25T06:19:44;99245.41;;;5.74;100.00
58775;BME280;44545;47.480;19.024;2024-03-25T06:22:45;99242.66;;;5.71;100.00
58775;BME280;44545;47.480;19.024;2024-03-25T06:25:46;99244.44;;;5.72;100.00
58775;BME280;44545;47.480;19.024;2024-03-25T06:28:48;99243.28;;;5.67;100.00
58775;BME280;44545;47.480;19.024;2024-03-25T06:31:50;99249.44;;;6.00;100.00
58775;BME280;44545;47.480;19.024;2024-03-25T06:35:10;99241.31;;;6.76;100.00
58775;BME280;44545;47.480;19.024;2024-03-25T06:38:13;99243.81;;;7.08;100.00
58775;BME280;44545;47.480;19.024;2024-03-25T06:41:15;99250.38;;;7.36;100.00
58775;BME280;44545;47.480;19.024;2024-03-25T06:44:16;99258.62;;;8.00;100.00
58775;BME280;44545;47.480;19.024;2024-03-25T06:47:18;99258.59;;;8.57;100.00
58775;BME280;44545;47.480;19.024;2024-03-25T06:50:19;99253.84;;;9.08;96.31
58775;BME280;44545;47.480;19.024;2024-03-25T06:53:21;99266.00;;;8.88;97.69
58775;BME280;44545;47.480;19.024;2024-03-25T06:56:23;99264.25;;;8.68;98.18
58775;BME280;44545;47.480;19.024;2024-03-25T06:59:24;99264.50;;;8.35;100.00
58775;BME280;44545;47.480;19.024;2024-03-25T07:02:26;99267.16;;;8.17;100.00
58775;BME280;44545;47.480;19.024;2024-03-25T07:05:27;99279.44;;;9.40;95.32
58775;BME280;44545;47.480;19.024;2024-03-25T07:08:29;99274.69;;;9.29;93.97
58775;BME280;44545;47.480;19.024;2024-03-25T07:11:31;99269.44;;;9.08;93.87
58775;BME280;44545;47.480;19.024;2024-03-25T07:14:33;99283.66;;;8.96;94.96
58775;BME280;44545;47.480;19.024;2024-03-25T07:17:34;99276.03;;;8.40;96.23
58775;BME280;44545;47.480;19.024;2024-03-25T07:20:36;99271.97;;;8.86;95.03
58775;BME280;44545;47.480;19.024;2024-03-25T07:23:38;99274.09;;;8.75;93.24
58775;BME280;44545;47.480;19.024;2024-03-25T07:26:39;99275.97;;;8.58;93.01
58775;BME280;44545;47.480;19.024;2024-03-25T07:29:41;99277.25;;;8.68;91.91
58775;BME280;44545;47.480;19.024;2024-03-25T07:32:42;99276.31;;;8.46;93.14
58775;BME280;44545;47.480;19.024;2024-03-25T07:35:46;99294.22;;;8.22;95.31
58775;BME280;44545;47.480;19.024;2024-03-25T07:38:48;99290.28;;;8.49;93.35
58775;BME280;44545;47.480;19.024;2024-03-25T07:41:49;99293.03;;;8.73;92.50
58775;BME280;44545;47.480;19.024;2024-03-25T07:44:51;99289.56;;;8.92;91.21
58775;BME280;44545;47.480;19.024;2024-03-25T07:47:52;99295.03;;;8.78;91.40
58775;BME280;44545;47.480;19.024;2024-03-25T07:50:54;99286.56;;;8.63;93.25
58775;BME280;44545;47.480;19.024;2024-03-25T07:53:56;99286.63;;;8.64;93.03
58775;BME280;44545;47.480;19.024;2024-03-25T07:56:58;99297.50;;;9.37;89.40
58775;BME280;44545;47.480;19.024;2024-03-25T07:59:59;99286.41;;;9.20;86.17
58775;BME280;44545;47.480;19.024;2024-03-25T08:03:01;99291.81;;;9.24;84.99
58775;BME280;44545;47.480;19.024;2024-03-25T08:06:03;99300.69;;;9.29;84.52
58775;BME280;44545;47.480;19.024;2024-03-25T08:09:05;99308.06;;;9.40;83.25
58775;BME280;44545;47.480;19.024;2024-03-25T08:12:09;99305.63;;;8.83;84.76
58775;BME280;44545;47.480;19.024;2024-03-25T08:15:10;99309.06;;;8.62;87.52
58775;BME280;44545;47.480;19.024;2024-03-25T08:18:12;99304.19;;;8.89;87.23
58775;BME280;44545;47.480;19.024;2024-03-25T08:21:14;99312.47;;;9.63;84.16
58775;BME280;44545;47.480;19.024;2024-03-25T08:24:16;99306.19;;;10.02;80.60
58775;BME280;44545;47.480;19.024;2024-03-25T08:27:18;99310.84;;;10.55;77.12
58775;BME280;44545;47.480;19.024;2024-03-25T08:30:22;99303.44;;;10.66;74.23
58775;BME280;44545;47.480;19.024;2024-03-25T08:33:23;99338.63;;;11.53;70.21
58775;BME280;44545;47.480;19.024;2024-03-25T08:36:32;99330.72;;;11.49;68.87
58775;BME280;44545;47.480;19.024;2024-03-25T08:39:33;99337.25;;;11.64;67.58
58775;BME280;44545;47.480;19.024;2024-03-25T08:42:35;99352.38;;;12.00;65.04
58775;BME280;44545;47.480;19.024;2024-03-25T08:45:36;99328.91;;;11.48;64.69
58775;BME280;44545;47.480;19.024;2024-03-25T08:48:38;99346.22;;;11.72;63.29
58775;BME280;44545;47.480;19.024;2024-03-25T08:51:39;99360.72;;;11.88;62.30
58775;BME280;44545;47.480;19.024;2024-03-25T08:54:41;99348.84;;;11.72;61.78
58775;BME280;44545;47.480;19.024;2024-03-25T08:57:42;99326.78;;;11.88;63.08
58775;BME280;44545;47.480;19.024;2024-03-25T09:00:45;99327.56;;;11.60;62.77
58775;BME280;44545;47.480;19.024;2024-03-25T09:03:46;99361.06;;;12.26;60.28
58775;BME280;44545;47.480;19.024;2024-03-25T09:06:49;99555.09;;;15.68;49.55
58775;BME280;44545;47.480;19.024;2024-03-25T09:09:50;99644.50;;;17.04;43.34
58775;BME280;44545;47.480;19.024;2024-03-25T09:13:12;99552.13;;;15.93;44.90
58775;BME280;44545;47.480;19.024;2024-03-25T09:16:14;99536.13;;;14.99;45.42
58775;BME280;44545;47.480;19.024;2024-03-25T09:19:16;99451.69;;;14.08;47.54
58775;BME280;44545;47.480;19.024;2024-03-25T09:22:17;99539.34;;;15.68;44.49
58775;BME280;44545;47.480;19.024;2024-03-25T09:25:19;99553.63;;;16.28;43.51
58775;BME280;44545;47.480;19.024;2024-03-25T09:28:20;99596.56;;;16.75;41.87
58775;BME280;44545;47.480;19.024;2024-03-25T09:31:23;99654.66;;;17.39;39.35
58775;BME280;44545;47.480;19.024;2024-03-25T09:34:27;99759.97;;;19.30;35.71
58775;BME280;44545;47.480;19.024;2024-03-25T09:37:29;99803.94;;;20.34;33.56
58775;BME280;44545;47.480;19.024;2024-03-25T09:40:30;99705.00;;;18.17;35.91
58775;BME280;44545;47.480;19.024;2024-03-25T09:46:41;99410.12;;;14.25;45.62
58775;BME280;44545;47.480;19.024;2024-03-25T09:49:43;99167.00;;;13.36;58.16
58775;BME280;44545;47.480;19.024;2024-03-25T09:52:46;99146.84;;;11.70;67.53
58775;BME280;44545;47.480;19.024;2024-03-25T09:55:49;99302.81;;;10.49;88.81
58775;BME280;44545;47.480;19.024;2024-03-25T09:58:50;99299.91;;;9.96;94.20
58775;BME280;44545;47.480;19.024;2024-03-25T10:01:54;99283.59;;;9.15;96.63
58775;BME280;44545;47.480;19.024;2024-03-25T10:04:56;99284.75;;;9.86;99.27
58775;BME280;44545;47.480;19.024;2024-03-25T10:07:58;99369.19;;;15.57;68.48
58775;BME280;44545;47.480;19.024;2024-03-25T10:11:00;99542.16;;;19.03;46.51
58775;BME280;44545;47.480;19.024;2024-03-25T10:14:03;99622.22;;;20.70;40.27
58775;BME280;44545;47.480;19.024;2024-03-25T10:17:05;99675.94;;;22.24;38.77
58775;BME280;44545;47.480;19.024;2024-03-25T10:20:13;99793.09;;;23.46;33.00
58775;BME280;44545;47.480;19.024;2024-03-25T10:23:15;99818.53;;;21.69;31.62
58775;BME280;44545;47.480;19.024;2024-03-25T10:26:30;99615.16;;;20.65;36.20
58775;BME280;44545;47.480;19.024;2024-03-25T10:29:37;99723.69;;;22.38;33.25
58775;BME280;44545;47.480;19.024;2024-03-25T10:32:39;99814.59;;;23.17;29.78
58775;BME280;44545;47.480;19.024;2024-03-25T10:35:44;99714.94;;;20.67;32.53
58775;BME280;44545;47.480;19.024;2024-03-25T10:38:49;99497.50;;;16.25;38.53
58775;BME280;44545;47.480;19.024;2024-03-25T10:41:54;99318.41;;;15.11;44.09
58775;BME280;44545;47.480;19.024;2024-03-25T10:44:56;99298.59;;;14.39;45.15
58775;BME280;44545;47.480;19.024;2024-03-25T10:48:03;99233.34;;;13.73;48.47
58775;BME280;44545;47.480;19.024;2024-03-25T10:51:05;99195.28;;;13.51;51.69
58775;BME280;44545;47.480;19.024;2024-03-25T10:54:09;99251.91;;;12.80;48.44
58775;BME280;44545;47.480;19.024;2024-03-25T10:57:13;99271.06;;;13.81;48.74
58775;BME280;44545;47.480;19.024;2024-03-25T11:00:15;99266.09;;;13.55;49.88
58775;BME280;44545;47.480;19.024;2024-03-25T11:03:17;99285.50;;;12.65;48.58
58775;BME280;44545;47.480;19.024;2024-03-25T11:06:19;99322.44;;;13.39;47.12
58775;BME280;44545;47.480;19.024;2024-03-25T11:09:22;99339.16;;;13.79;46.44
58775;BME280;44545;47.480;19.024;2024-03-25T11:12:35;99692.06;;;21.38;35.02
58775;BME280;44545;47.480;19.024;2024-03-25T11:15:40;99985.75;;;25.43;26.26
58775;BME280;44545;47.480;19.024;2024-03-25T11:18:50;99768.88;;;20.88;31.00
58775;BME280;44545;47.480;19.024;2024-03-25T11:21:52;99715.25;;;19.57;32.10
58775;BME280;44545;47.480;19.024;2024-03-25T11:24:54;99495.12;;;15.91;38.47
58775;BME280;44545;47.480;19.024;2024-03-25T11:27:56;99298.84;;;14.11;43.32
58775;BME280;44545;47.480;19.024;2024-03-25T11:30:57;99220.22;;;13.35;47.57
58775;BME280;44545;47.480;19.024;2024-03-25T11:34:04;99330.06;;;13.32;43.83
58775;BME280;44545;47.480;19.024;2024-03-25T11:37:06;99266.25;;;12.62;46.63
58775;BME280;44545;47.480;19.024;2024-03-25T11:40:09;99229.44;;;12.24;49.04
58775;BME280;44545;47.480;19.024;2024-03-25T11:43:22;99146.66;;;11.35;56.15
58775;BME280;44545;47.480;19.024;2024-03-25T11:46:26;99130.31;;;10.11;71.12
58775;BME280;44545;47.480;19.024;2024-03-25T11:49:28;99292.44;;;9.40;83.46
58775;BME280;44545;47.480;19.024;2024-03-25T11:52:31;99291.66;;;9.21;84.38
58775;BME280;44545;47.480;19.024;2024-03-25T11:55:33;99283.28;;;9.70;92.21
58775;BME280;44545;47.480;19.024;2024-03-25T11:58:34;99298.31;;;10.00;78.81
58775;BME280;44545;47.480;19.024;2024-03-25T12:01:36;99279.00;;;11.39;79.46
58775;BME280;44545;47.480;19.024;2024-03-25T12:04:42;99349.56;;;12.49;65.92
58775;BME280;44545;47.480;19.024;2024-03-25T12:07:43;99311.22;;;12.50;65.22
58775;BME280;44545;47.480;19.024;2024-03-25T12:10:45;99285.94;;;12.50;66.22
58775;BME280;44545;47.480;19.024;2024-03-25T12:14:06;99287.50;;;12.74;64.30
58775;BME280;44545;47.480;19.024;2024-03-25T12:17:09;99320.88;;;13.14;60.25
58775;BME280;44545;47.480;19.024;2024-03-25T12:20:10;99323.78;;;12.93;59.67
58775;BME280;44545;47.480;19.024;2024-03-25T12:23:12;99292.03;;;11.90;63.35
58775;BME280;44545;47.480;19.024;2024-03-25T12:26:13;99267.84;;;10.67;69.11
58775;BME280;44545;47.480;19.024;2024-03-25T12:29:16;99263.75;;;10.04;76.70
58775;BME280;44545;47.480;19.024;2024-03-25T12:32:17;99318.69;;;10.33;70.87
58775;BME280;44545;47.480;19.024;2024-03-25T12:35:19;99313.88;;;10.66;70.24
58775;BME280;44545;47.480;19.024;2024-03-25T12:38:30;99296.44;;;10.65;74.08
58775;BME280;44545;47.480;19.024;2024-03-25T12:41:35;99294.88;;;10.01;79.44
58775;BME280;44545;47.480;19.024;2024-03-25T12:44:37;99292.59;;;10.31;82.85
58775;BME280;44545;47.480;19.024;2024-03-25T12:47:39;99298.09;;;10.39;81.35
58775;BME280;44545;47.480;19.024;2024-03-25T12:50:40;99310.41;;;10.43;82.15
58775;BME280;44545;47.480;19.024;2024-03-25T12:53:42;99315.19;;;10.10;79.05
58775;BME280;44545;47.480;19.024;2024-03-25T12:56:43;99308.97;;;10.06;83.39
58775;BME280;44545;47.480;19.024;2024-03-25T12:59:45;99308.03;;;10.27;84.40
58775;BME280;44545;47.480;19.024;2024-03-25T13:02:46;99315.16;;;11.53;78.61
58775;BME280;44545;47.480;19.024;2024-03-25T13:05:48;99396.31;;;12.11;63.55
58775;BME280;44545;47.480;19.024;2024-03-25T13:08:50;99366.38;;;12.29;63.08
58775;BME280;44545;47.480;19.024;2024-03-25T13:11:51;99312.28;;;11.98;65.37
58775;BME280;44545;47.480;19.024;2024-03-25T13:14:52;99359.03;;;11.64;62.14
58775;BME280;44545;47.480;19.024;2024-03-25T13:17:54;99346.72;;;10.85;61.16
58775;BME280;44545;47.480;19.024;2024-03-25T13:20:55;99284.47;;;10.24;66.74
58775;BME280;44545;47.480;19.024;2024-03-25T13:23:57;99283.44;;;10.43;68.85
58775;BME280;44545;47.480;19.024;2024-03-25T13:26:58;99337.69;;;10.99;64.03
58775;BME280;44545;47.480;19.024;2024-03-25T13:30:00;99321.41;;;11.58;63.90
58775;BME280;44545;47.480;19.024;2024-03-25T13:33:01;99383.78;;;12.57;60.07
58775;BME280;44545;47.480;19.024;2024-03-25T13:36:06;99340.25;;;12.59;61.02
58775;BME280;44545;47.480;19.024;2024-03-25T13:39:08;99334.88;;;11.97;60.54
58775;BME280;44545;47.480;19.024;2024-03-25T13:42:10;99309.38;;;11.63;62.31
58775;BME280;44545;47.480;19.024;2024-03-25T13:45:11;99309.66;;;11.72;62.51
58775;BME280;44545;47.480;19.024;2024-03-25T13:48:13;99266.47;;;11.29;66.81
58775;BME280;44545;47.480;19.024;2024-03-25T13:51:15;99305.50;;;11.24;65.10
58775;BME280;44545;47.480;19.024;2024-03-25T13:54:17;99284.34;;;11.42;67.75
58775;BME280;44545;47.480;19.024;2024-03-25T13:57:18;99325.97;;;11.90;65.05
58775;BME280;44545;47.480;19.024;2024-03-25T14:00:20;99350.91;;;11.82;61.27
58775;BME280;44545;47.480;19.024;2024-03-25T14:03:23;99362.91;;;12.30;60.16
58775;BME280;44545;47.480;19.024;2024-03-25T14:06:26;99416.97;;;12.31;55.59
58775;BME280;44545;47.480;19.024;2024-03-25T14:09:28;99396.25;;;12.10;56.00
58775;BME280;44545;47.480;19.024;2024-03-25T14:12:29;99370.66;;;11.47;56.51
58775;BME280;44545;47.480;19.024;2024-03-25T14:15:31;99312.97;;;10.90;58.63
58775;BME280;44545;47.480;19.024;2024-03-25T14:18:32;99360.28;;;10.99;56.32
58775;BME280;44545;47.480;19.024;2024-03-25T14:21:34;99311.62;;;11.26;58.10
58775;BME280;44545;47.480;19.024;2024-03-25T14:24:36;99345.63;;;11.54;56.28
58775;BME280;44545;47.480;19.024;2024-03-25T14:27:37;99451.19;;;11.36;50.76
58775;BME280;44545;47.480;19.024;2024-03-25T14:30:39;99371.00;;;11.08;53.19
58775;BME280;44545;47.480;19.024;2024-03-25T14:33:40;99383.31;;;11.36;52.42
58775;BME280;44545;47.480;19.024;2024-03-25T14:36:41;99378.06;;;11.60;52.21
58775;BME280;44545;47.480;19.024;2024-03-25T14:39:45;99407.59;;;11.59;51.16
58775;BME280;44545;47.480;19.024;2024-03-25T14:42:46;99417.41;;;11.41;50.15
58775;BME280;44545;47.480;19.024;2024-03-25T14:45:48;99351.53;;;11.22;52.87
58775;BME280;44545;47.480;19.024;2024-03-25T14:48:51;99346.59;;;11.06;53.11
58775;BME280;44545;47.480;19.024;2024-03-25T14:51:52;99346.56;;;11.04;52.94
58775;BME280;44545;47.480;19.024;2024-03-25T14:54:54;99353.59;;;10.59;52.79
58775;BME280;44545;47.480;19.024;2024-03-25T14:57:55;99304.09;;;10.60;54.91
58775;BME280;44545;47.480;19.024;2024-03-25T15:00:57;99294.41;;;10.56;54.89
58775;BME280;44545;47.480;19.024;2024-03-25T15:03:59;99303.22;;;10.60;55.11
58775;BME280;44545;47.480;19.024;2024-03-25T15:07:00;99278.03;;;10.60;56.15
58775;BME280;44545;47.480;19.024;2024-03-25T15:10:02;99318.03;;;10.61;54.46
58775;BME280;44545;47.480;19.024;2024-03-25T15:13:03;99317.03;;;10.57;54.57
58775;BME280;44545;47.480;19.024;2024-03-25T15:16:05;99314.66;;;10.63;54.58
58775;BME280;44545;47.480;19.024;2024-03-25T15:19:06;99331.22;;;10.66;53.72
58775;BME280;44545;47.480;19.024;2024-03-25T15:22:11;99296.50;;;10.67;55.55
58775;BME280;44545;47.480;19.024;2024-03-25T15:25:12;99266.19;;;10.69;56.90
58775;BME280;44545;47.480;19.024;2024-03-25T15:28:14;99323.16;;;10.83;54.41
58775;BME280;44545;47.480;19.024;2024-03-25T15:31:15;99345.84;;;10.84;53.45
58775;BME280;44545;47.480;19.024;2024-03-25T15:34:17;99313.22;;;10.72;54.64
58775;BME280;44545;47.480;19.024;2024-03-25T15:37:18;99300.91;;;10.93;55.12
58775;BME280;44545;47.480;19.024;2024-03-25T15:40:20;99314.31;;;10.78;54.96
58775;BME280;44545;47.480;19.024;2024-03-25T15:43:21;99304.44;;;10.70;55.41
58775;BME280;44545;47.480;19.024;2024-03-25T15:46:23;99249.75;;;10.71;58.45
58775;BME280;44545;47.480;19.024;2024-03-25T15:49:24;99271.59;;;10.75;57.81
58775;BME280;44545;47.480;19.024;2024-03-25T15:52:25;99278.97;;;10.87;57.56
58775;BME280;44545;47.480;19.024;2024-03-25T15:55:27;99324.91;;;10.83;55.62
58775;BME280;44545;47.480;19.024;2024-03-25T15:58:28;99290.31;;;10.89;57.54
58775;BME280;44545;47.480;19.024;2024-03-25T16:01:31;99297.31;;;10.66;57.11
58775;BME280;44545;47.480;19.024;2024-03-25T16:04:33;99296.94;;;10.31;57.73
58775;BME280;44545;47.480;19.024;2024-03-25T16:07:34;99259.19;;;9.98;59.88
58775;BME280;44545;47.480;19.024;2024-03-25T16:10:36;99228.50;;;9.67;62.97
58775;BME280;44545;47.480;19.024;2024-03-25T16:13:37;99221.75;;;9.29;67.05
58775;BME280;44545;47.480;19.024;2024-03-25T16:16:41;99251.41;;;9.11;70.19
58775;BME280;44545;47.480;19.024;2024-03-25T16:19:42;99287.63;;;8.87;73.40
58775;BME280;44545;47.480;19.024;2024-03-25T16:22:48;99301.69;;;8.72;75.65
58775;BME280;44545;47.480;19.024;2024-03-25T16:25:50;99300.50;;;8.65;77.99
58775;BME280;44545;47.480;19.024;2024-03-25T16:28:52;99310.22;;;8.69;78.17
58775;BME280;44545;47.480;19.024;2024-03-25T16:31:53;99295.72;;;8.55;79.88
58775;BME280;44545;47.480;19.024;2024-03-25T16:34:55;99305.19;;;8.35;82.63
58775;BME280;44545;47.480;19.024;2024-03-25T16:37:57;99306.31;;;8.22;84.41
58775;BME280;44545;47.480;19.024;2024-03-25T16:40:59;99316.59;;;8.19;85.51
58775;BME280;44545;47.480;19.024;2024-03-25T16:44:02;99307.94;;;8.00;89.43
